Redmond, WA (98052)

8:39 AM PDT on September 01, 2015 (GMT -0700)
Education Hill - Top | | Change Station
CLOSE
Current Station
Personal Weather Station
Location: Redmond, WA
Elevation: 308 ft
Nearby Weather Stations

Elev 308 ft 47.70 °N, 122.12 °W | Updated 1 second ago

Overcast
Overcast
60.8 °F
Feels Like 60.8 °F
N
0.0
Wind Variable Wind from North
Gusts 0.0 mph

Today
High -- | Low -- °F
--% Chance of Precip.
Yesterday
High -- | Low -- °F
Precip. -- in
6:26 AM 7:49 PM
Waning Gibbous, 88% visible
Pressure 29.86 in
Visibility 2.0 miles
Clouds Mostly Cloudy 2000 ft
Overcast 4500 ft
Dew Point 58 °F
Humidity 89%
Rainfall 0.00 in
Snow Depth Not available.
UV 0 out of 12
Pollen .40 out of 12
Air Quality Not available.
Flu Activity Not available.
SPECI KBFI 011527Z 18006KT 2SM -RA BKN020 OVC045 17/14 A2986 RMK AO2 P0000
Pressure 29.86 in
Visibility 2.0 miles
Clouds Mostly Cloudy 2000 ft
Overcast 4500 ft
Dew Point 58 °F
Humidity 89%
Rainfall 0.00 in
Snow Depth Not available.
UV 0 out of 12
Pollen .40 out of 12
Air Quality Not available.
Flu Activity Not available.
SPECI KBFI 011527Z 18006KT 2SM -RA BKN020 OVC045 17/14 A2986 RMK AO2 P0000

10-Day Weather Forecast

×

Almanac

Astronomy

Sep. 01, 2015 Rise Set
Actual Time
Civil Twilight
Nautical Twilight
Astronomical Twilight
Moon
Length of Visible Light
Length of Day
Tomorrow will be .
, % of the Moon is Illuminated

Today's Extremes

State Highs State Lows

Community

WunderPhotos

Upload Photos

1,851,523 photos uploaded!

WunderBlogs® & News

Nearby

Air Quality

  Air Quality AQ Index Pollutant
Not available.

Snow Depth

Station Depth Elevation

Earthquake Activity

City Distance Mag. Time & Date
Minimum magnitude displayed is 2.5.

Coastal Water Temperatures

Place Temperature

Stations

Nearby Weather Stations

Station Location Temp. Windchill Dew Point Humidity Wind Precip. Elev Updated Type